createdAt,value
2022-09-16T00:02:18.908Z,61.24
2022-09-16T00:04:51.106Z,61.17
2022-09-16T00:07:23.119Z,61.13
2022-09-16T00:09:55.301Z,61.23
2022-09-16T00:12:27.346Z,61.21
2022-09-16T00:14:59.418Z,61.17
2022-09-16T00:17:31.774Z,60.92
2022-09-16T00:20:04.429Z,61.01
2022-09-16T00:22:37.583Z,60.93
2022-09-16T00:25:12.942Z,61.00
2022-09-16T00:27:48.569Z,61.04
2022-09-16T00:30:22.026Z,61.21
2022-09-16T00:32:57.534Z,61.09
2022-09-16T00:35:30.216Z,60.97
2022-09-16T00:38:03.817Z,60.92
2022-09-16T00:40:44.946Z,60.91
2022-09-16T00:43:21.410Z,61.08
2022-09-16T00:46:01.962Z,60.93
2022-09-16T00:48:37.714Z,60.84
2022-09-16T00:51:13.341Z,60.92
2022-09-16T00:53:54.397Z,60.80
2022-09-16T00:56:29.655Z,60.72
2022-09-16T00:59:09.287Z,60.58
2022-09-16T01:01:45.556Z,60.54
2022-09-16T01:04:21.441Z,60.49
2022-09-16T01:06:55.554Z,60.39
2022-09-16T01:09:29.338Z,60.43
2022-09-16T01:12:03.163Z,60.45
2022-09-16T01:14:53.120Z,60.44
2022-09-16T01:17:31.489Z,60.24
2022-09-16T01:20:29.328Z,60.12
2022-09-16T01:23:20.351Z,60.05
2022-09-16T01:26:06.146Z,60.08
2022-09-16T01:29:11.269Z,59.96
2022-09-16T01:31:47.129Z,59.98
2022-09-16T01:34:30.219Z,59.91
2022-09-16T01:37:07.929Z,59.89
2022-09-16T01:39:45.689Z,59.90
2022-09-16T01:42:28.365Z,59.83
2022-09-16T01:45:05.688Z,59.83
2022-09-16T01:47:41.273Z,59.75
2022-09-16T01:50:19.479Z,59.61
2022-09-16T01:53:03.975Z,59.61
2022-09-16T01:55:42.563Z,59.56
2022-09-16T01:58:18.866Z,59.44
2022-09-16T02:00:52.005Z,59.32
2022-09-16T02:03:28.347Z,59.37
2022-09-16T02:06:05.744Z,59.27
2022-09-16T02:08:42.025Z,59.52
2022-09-16T02:11:18.205Z,59.52
2022-09-16T02:13:55.394Z,59.67
2022-09-16T02:16:29.968Z,59.79
2022-09-16T02:19:03.825Z,59.89
2022-09-16T02:21:45.420Z,59.88
2022-09-16T02:24:21.217Z,59.91
2022-09-16T02:27:00.929Z,59.91
2022-09-16T02:29:44.263Z,60.22
2022-09-16T02:32:17.376Z,60.45
2022-09-16T02:34:50.605Z,60.58
2022-09-16T02:37:26.394Z,60.70
2022-09-16T02:40:02.331Z,60.68
2022-09-16T02:42:35.464Z,60.62
2022-09-16T02:45:11.280Z,60.38
2022-09-16T02:47:48.625Z,60.29
2022-09-16T02:50:27.291Z,60.22
2022-09-16T02:53:02.608Z,60.18
2022-09-16T02:55:40.949Z,60.13
2022-09-16T02:58:15.144Z,59.94
2022-09-16T03:00:49.683Z,60.01
2022-09-16T03:03:24.471Z,59.82
2022-09-16T03:06:18.547Z,59.75
2022-09-16T03:08:51.743Z,59.61
2022-09-16T03:11:48.107Z,59.63
2022-09-16T03:14:38.934Z,59.78
2022-09-16T03:17:22.062Z,59.84
2022-09-16T03:20:07.334Z,59.74
2022-09-16T03:22:50.359Z,59.79
2022-09-16T03:25:29.752Z,59.57
2022-09-16T03:28:09.255Z,59.56
2022-09-16T03:30:48.721Z,59.55
2022-09-16T03:33:28.380Z,59.50
2022-09-16T03:36:02.368Z,59.56
2022-09-16T03:38:36.881Z,59.56
2022-09-16T03:41:11.016Z,59.57
2022-09-16T03:43:44.045Z,59.59
2022-09-16T03:46:18.280Z,59.48
2022-09-16T03:48:52.459Z,59.17
2022-09-16T03:51:26.112Z,59.15
2022-09-16T03:53:58.644Z,59.28
2022-09-16T03:56:32.344Z,59.26
2022-09-16T03:59:04.842Z,59.06
2022-09-16T04:01:38.488Z,59.11
2022-09-16T04:04:13.430Z,59.16
2022-09-16T04:06:48.216Z,59.08
2022-09-16T04:09:23.013Z,59.19
2022-09-16T04:11:58.663Z,59.13
2022-09-16T04:14:31.248Z,59.04
2022-09-16T04:17:04.271Z,59.24
2022-09-16T04:19:36.306Z,59.21
2022-09-16T04:22:09.718Z,59.29
2022-09-16T04:24:42.609Z,59.05
2022-09-16T04:27:16.802Z,59.31
2022-09-16T04:29:49.264Z,59.24
2022-09-16T04:32:23.071Z,59.31
2022-09-16T04:35:01.279Z,59.28
2022-09-16T04:37:34.424Z,59.29
2022-09-16T04:40:09.551Z,59.37
2022-09-16T04:42:41.828Z,59.43
2022-09-16T04:45:14.675Z,59.53
2022-09-16T04:47:47.676Z,59.54
2022-09-16T04:50:20.081Z,59.59
2022-09-16T04:52:56.194Z,59.56
2022-09-16T04:55:30.196Z,59.37
2022-09-16T04:58:07.141Z,59.23
2022-09-16T05:00:43.327Z,58.99
2022-09-16T05:03:16.134Z,58.79
2022-09-16T05:05:49.651Z,58.30
2022-09-16T05:08:25.883Z,58.14
2022-09-16T05:11:03.316Z,57.95
2022-09-16T05:13:37.012Z,57.78
2022-09-16T05:16:12.180Z,57.75
2022-09-16T05:18:47.546Z,57.47
2022-09-16T05:21:21.196Z,57.36
2022-09-16T05:23:57.848Z,57.23
2022-09-16T05:26:32.849Z,57.11
2022-09-16T05:29:12.244Z,57.09
2022-09-16T05:31:47.576Z,56.85
2022-09-16T05:34:23.328Z,56.62
2022-09-16T05:36:57.249Z,56.45
2022-09-16T05:39:29.687Z,56.61
2022-09-16T05:42:05.968Z,56.76
2022-09-16T05:44:40.815Z,56.75
2022-09-16T05:47:17.025Z,56.71
2022-09-16T05:49:54.980Z,56.25
2022-09-16T05:52:30.190Z,56.40
2022-09-16T05:55:04.681Z,56.15
2022-09-16T05:57:38.037Z,55.96
2022-09-16T06:00:12.775Z,55.69
2022-09-16T06:02:47.555Z,55.61
2022-09-16T06:05:23.467Z,55.56
2022-09-16T06:07:59.790Z,54.98
2022-09-16T06:10:32.125Z,55.32
2022-09-16T06:13:05.328Z,55.25
2022-09-16T06:15:39.526Z,55.33
2022-09-16T06:18:16.034Z,55.32
2022-09-16T06:20:51.271Z,55.04
2022-09-16T06:23:25.771Z,55.04
2022-09-16T06:26:07.709Z,54.64
2022-09-16T06:28:41.009Z,54.38
2022-09-16T06:31:17.033Z,54.21
2022-09-16T06:33:52.682Z,54.07
2022-09-16T06:36:27.998Z,54.20
2022-09-16T06:39:00.702Z,54.21
2022-09-16T06:41:34.689Z,53.54
2022-09-16T06:44:07.146Z,53.68
2022-09-16T06:46:42.784Z,53.64
2022-09-16T06:49:14.918Z,53.84
2022-09-16T06:51:48.254Z,53.67
2022-09-16T06:54:21.199Z,53.89
2022-09-16T06:56:54.903Z,53.88
2022-09-16T06:59:29.161Z,53.78
2022-09-16T07:02:02.658Z,53.42
2022-09-16T07:04:35.617Z,53.12
2022-09-16T07:07:10.876Z,53.27
2022-09-16T07:09:43.165Z,53.15
2022-09-16T07:12:19.755Z,53.14
2022-09-16T07:14:53.192Z,53.26
2022-09-16T07:17:27.326Z,53.19
2022-09-16T07:19:59.156Z,53.12
2022-09-16T07:22:34.847Z,52.86
2022-09-16T07:25:09.015Z,52.71
2022-09-16T07:27:41.338Z,52.44
2022-09-16T07:30:15.703Z,51.88
2022-09-16T07:32:47.696Z,52.03
2022-09-16T07:35:22.010Z,52.10
2022-09-16T07:37:54.066Z,51.80
2022-09-16T07:40:29.767Z,51.69
2022-09-16T07:43:01.831Z,51.31
2022-09-16T07:45:34.441Z,51.28
2022-09-16T07:48:07.989Z,51.72
2022-09-16T07:50:41.679Z,51.83
2022-09-16T07:53:13.960Z,51.76
2022-09-16T07:55:47.108Z,51.27
2022-09-16T07:58:20.752Z,51.40
2022-09-16T08:00:53.321Z,51.90
2022-09-16T08:03:25.473Z,52.07
2022-09-16T08:06:02.699Z,52.19
2022-09-16T08:08:35.290Z,52.02
2022-09-16T08:11:09.794Z,52.08
2022-09-16T08:13:42.223Z,52.29
2022-09-16T08:16:16.022Z,52.19
2022-09-16T08:18:49.726Z,52.45
2022-09-16T08:21:25.115Z,52.31
2022-09-16T08:23:57.589Z,52.17
2022-09-16T08:26:31.316Z,52.32
2022-09-16T08:29:08.813Z,52.53
2022-09-16T08:31:42.562Z,52.54
2022-09-16T08:34:16.474Z,51.71
2022-09-16T08:36:48.279Z,50.83
2022-09-16T08:39:22.407Z,50.97
2022-09-16T08:42:33.442Z,50.16
2022-09-16T08:45:16.490Z,48.77
2022-09-16T08:48:01.362Z,48.45
2022-09-16T08:50:37.465Z,48.04
2022-09-16T08:53:16.642Z,48.61
2022-09-16T08:55:50.793Z,48.12
2022-09-16T08:58:26.697Z,48.40
2022-09-16T09:01:02.769Z,48.10
2022-09-16T09:03:38.837Z,47.99
2022-09-16T09:06:19.896Z,47.64
2022-09-16T09:09:04.291Z,47.93
2022-09-16T09:11:42.090Z,47.83
2022-09-16T09:14:29.607Z,47.61
2022-09-16T09:17:08.850Z,47.02
2022-09-16T09:19:51.859Z,46.38
2022-09-16T09:22:45.572Z,46.52
2022-09-16T09:25:36.312Z,46.77
2022-09-16T09:28:21.442Z,46.99
2022-09-16T09:31:00.799Z,46.81
2022-09-16T09:33:46.536Z,46.92
2022-09-16T09:36:40.945Z,45.93
2022-09-16T09:39:38.386Z,46.13
2022-09-16T09:42:15.733Z,45.78
2022-09-16T09:45:03.184Z,46.12
2022-09-16T09:47:40.753Z,46.23
2022-09-16T09:50:19.220Z,46.38
2022-09-16T09:52:57.579Z,45.15
2022-09-16T09:55:33.066Z,45.75
2022-09-16T09:58:21.266Z,45.66
2022-09-16T10:00:56.375Z,45.07
2022-09-16T10:03:30.979Z,45.59
2022-09-16T10:06:04.440Z,45.75
2022-09-16T10:08:42.875Z,45.12
2022-09-16T10:11:21.821Z,44.02
2022-09-16T10:13:55.922Z,44.07
2022-09-16T10:16:32.458Z,43.48
2022-09-16T10:19:10.501Z,43.38
2022-09-16T10:21:48.698Z,42.56
2022-09-16T10:24:42.307Z,42.73
2022-09-16T10:27:27.291Z,42.44
2022-09-16T10:30:15.429Z,41.24
2022-09-16T10:32:56.411Z,40.85
2022-09-16T10:35:30.486Z,40.63
2022-09-16T10:38:08.089Z,40.85
2022-09-16T10:40:41.274Z,41.42
2022-09-16T10:43:18.778Z,40.77
2022-09-16T10:45:53.041Z,40.67
2022-09-16T10:48:28.620Z,41.54
2022-09-16T10:51:02.555Z,42.37
2022-09-16T10:53:39.656Z,41.86
2022-09-16T10:56:22.873Z,41.91
2022-09-16T10:59:10.623Z,41.34
2022-09-16T11:01:51.147Z,41.04
2022-09-16T11:04:46.027Z,41.28
2022-09-16T11:07:33.383Z,41.59
2022-09-16T11:10:16.411Z,41.92
2022-09-16T11:13:16.208Z,42.00
2022-09-16T11:16:04.031Z,41.64
2022-09-16T11:18:57.122Z,41.37
2022-09-16T11:21:39.809Z,41.27
2022-09-16T11:24:23.040Z,41.06
2022-09-16T11:27:01.058Z,41.57
2022-09-16T11:29:53.789Z,41.60
2022-09-16T11:32:36.289Z,41.42
2022-09-16T11:35:27.476Z,41.43
2022-09-16T11:38:05.380Z,41.29
2022-09-16T11:40:52.050Z,40.79
2022-09-16T11:43:48.473Z,41.15
2022-09-16T11:46:27.418Z,41.29
2022-09-16T11:49:14.995Z,41.34
2022-09-16T11:52:02.303Z,41.34
2022-09-16T11:54:48.251Z,41.17
2022-09-16T11:57:22.226Z,41.72
2022-09-16T11:59:59.154Z,41.81
2022-09-16T12:02:37.282Z,41.77
2022-09-16T12:05:19.495Z,41.92
2022-09-16T12:07:56.859Z,42.18
2022-09-16T12:10:38.578Z,42.02
2022-09-16T12:13:17.031Z,41.44
2022-09-16T12:15:52.395Z,41.12
2022-09-16T12:18:28.340Z,41.14
2022-09-16T12:21:07.878Z,40.32
2022-09-16T12:23:44.727Z,40.30
2022-09-16T12:26:21.847Z,40.48
2022-09-16T12:29:00.859Z,40.69
2022-09-16T12:31:38.109Z,40.33
2022-09-16T12:34:15.641Z,40.17
2022-09-16T12:36:51.186Z,40.30
2022-09-16T12:39:25.059Z,39.78
2022-09-16T12:42:17.699Z,40.00
2022-09-16T12:45:07.211Z,40.10
2022-09-16T12:47:59.471Z,40.17
2022-09-16T12:51:01.721Z,40.30
2022-09-16T12:53:54.091Z,40.71
2022-09-16T12:56:40.527Z,40.57
2022-09-16T12:59:34.994Z,39.66
2022-09-16T13:02:17.351Z,39.37
2022-09-16T13:04:51.803Z,38.49
2022-09-16T13:07:28.668Z,38.01
2022-09-16T13:10:07.278Z,36.77
2022-09-16T13:12:43.950Z,36.08
2022-09-16T13:15:28.536Z,36.33
2022-09-16T13:18:11.959Z,37.01
2022-09-16T13:20:49.360Z,36.62
2022-09-16T13:23:24.941Z,37.42
2022-09-16T13:26:04.277Z,37.89
2022-09-16T13:28:41.499Z,38.22
2022-09-16T13:31:34.310Z,37.35
2022-09-16T13:34:19.200Z,38.39
2022-09-16T13:36:52.367Z,39.05
2022-09-16T13:39:36.085Z,39.45
2022-09-16T13:42:21.676Z,39.93
2022-09-16T13:44:56.039Z,40.08
2022-09-16T13:47:41.833Z,40.30
2022-09-16T13:50:18.258Z,40.53
2022-09-16T13:52:50.786Z,40.88
2022-09-16T13:55:25.783Z,41.09
2022-09-16T13:58:03.484Z,41.40
2022-09-16T14:00:42.341Z,41.49
2022-09-16T14:03:29.186Z,41.77
2022-09-16T14:06:23.124Z,41.82
2022-09-16T14:09:03.298Z,42.34
2022-09-16T14:11:39.973Z,42.58
2022-09-16T14:14:30.086Z,42.68
2022-09-16T14:17:17.585Z,43.13
2022-09-16T14:19:52.522Z,44.56
2022-09-16T14:22:27.669Z,47.96
2022-09-16T14:25:26.235Z,54.41
2022-09-16T14:28:07.403Z,54.03
2022-09-16T14:30:46.459Z,49.11
2022-09-16T14:33:21.567Z,49.10
2022-09-16T14:35:56.841Z,48.75
2022-09-16T14:38:45.664Z,48.54
2022-09-16T14:41:25.693Z,48.57
2022-09-16T14:44:05.576Z,48.81
2022-09-16T14:46:46.308Z,48.57
2022-09-16T14:49:20.749Z,48.61
2022-09-16T14:51:55.354Z,48.93
2022-09-16T14:54:29.414Z,48.62
2022-09-16T14:57:06.582Z,48.25
2022-09-16T14:59:42.869Z,48.31
2022-09-16T15:02:23.840Z,47.78
2022-09-16T15:05:03.086Z,47.72
2022-09-16T15:07:50.635Z,46.97
2022-09-16T15:10:39.710Z,45.90
2022-09-16T15:13:25.946Z,45.65
2022-09-16T15:16:04.656Z,45.80
2022-09-16T15:18:41.260Z,45.84
2022-09-16T15:21:21.172Z,45.74
2022-09-16T15:23:56.905Z,45.53
2022-09-16T15:26:33.189Z,45.92
2022-09-16T15:29:08.304Z,46.05
2022-09-16T15:31:44.973Z,46.10
2022-09-16T15:34:24.913Z,46.01
2022-09-16T15:36:59.101Z,45.65
2022-09-16T15:39:35.878Z,46.59
2022-09-16T15:42:15.730Z,46.65
2022-09-16T15:44:53.792Z,45.95
2022-09-16T15:47:30.105Z,46.02
2022-09-16T15:50:04.664Z,45.85
2022-09-16T15:52:52.858Z,45.81
2022-09-16T15:55:33.649Z,45.73
2022-09-16T15:58:12.055Z,45.51
2022-09-16T16:01:07.927Z,45.66
2022-09-16T16:03:50.413Z,45.73
2022-09-16T16:06:23.652Z,45.93
2022-09-16T16:08:58.197Z,46.16
2022-09-16T16:11:31.354Z,46.16
2022-09-16T16:14:06.118Z,46.29
2022-09-16T16:17:01.566Z,46.72
2022-09-16T16:20:23.241Z,47.03
2022-09-16T16:22:58.615Z,47.48
2022-09-16T16:25:38.128Z,47.75
2022-09-16T16:28:12.345Z,47.93
2022-09-16T16:30:52.096Z,48.00
2022-09-16T16:33:25.692Z,48.23
2022-09-16T16:36:23.508Z,48.19
2022-09-16T16:39:00.109Z,48.52
2022-09-16T16:41:37.629Z,48.48
2022-09-16T16:44:12.874Z,48.71
2022-09-16T16:46:50.597Z,48.88
2022-09-16T16:49:27.717Z,49.06
2022-09-16T16:55:10.464Z,49.64
2022-09-16T16:57:46.066Z,49.66
2022-09-16T17:04:02.475Z,49.71
2022-09-16T17:07:02.680Z,50.17
2022-09-16T17:09:51.121Z,50.22
2022-09-16T17:13:11.279Z,50.42
2022-09-16T17:15:49.987Z,50.49
2022-09-16T17:18:27.541Z,50.43
2022-09-16T17:21:11.522Z,50.59
2022-09-16T17:23:55.155Z,50.71
2022-09-16T17:26:29.694Z,50.64
2022-09-16T17:29:36.250Z,50.76
2022-09-16T17:32:19.012Z,50.77
2022-09-16T17:34:53.271Z,50.92
2022-09-16T17:37:25.619Z,50.98
2022-09-16T17:40:10.181Z,51.02
2022-09-16T17:42:48.103Z,51.25
2022-09-16T17:46:12.299Z,51.32
2022-09-16T17:49:14.760Z,51.21
2022-09-16T17:52:12.754Z,51.24
2022-09-16T17:54:48.112Z,51.50
2022-09-16T18:00:58.386Z,51.78
2022-09-16T18:03:46.181Z,51.99
2022-09-16T18:09:30.141Z,52.46
2022-09-16T18:12:16.097Z,52.53
2022-09-16T18:14:51.390Z,52.46
2022-09-16T18:17:29.925Z,52.48
2022-09-16T18:20:07.405Z,52.53
2022-09-16T18:22:46.440Z,52.56
2022-09-16T18:25:22.521Z,52.58
2022-09-16T18:28:00.773Z,52.69
2022-09-16T18:31:01.588Z,52.69
2022-09-16T18:33:43.542Z,52.66
2022-09-16T18:37:11.755Z,52.54
2022-09-16T18:39:49.242Z,52.61
2022-09-16T18:42:22.394Z,52.72
2022-09-16T18:44:57.172Z,52.90
2022-09-16T18:47:34.114Z,53.23
2022-09-16T18:50:10.221Z,53.67
2022-09-16T18:53:17.195Z,53.47
2022-09-16T18:55:52.092Z,53.34
2022-09-16T18:59:19.473Z,53.25
2022-09-16T19:01:56.185Z,53.24
2022-09-16T19:04:39.496Z,53.24
2022-09-16T19:07:19.472Z,53.20
2022-09-16T19:09:52.070Z,53.20
2022-09-16T19:12:39.274Z,53.25
2022-09-16T19:15:39.727Z,53.26
2022-09-16T19:18:15.242Z,53.27
2022-09-16T19:20:52.879Z,53.14
2022-09-16T19:23:27.885Z,53.19
2022-09-16T19:26:10.888Z,53.06
2022-09-16T19:32:06.926Z,53.11
2022-09-16T19:34:51.111Z,53.30
2022-09-16T19:38:12.350Z,53.29
2022-09-16T19:40:49.051Z,53.29
2022-09-16T19:43:26.542Z,53.30
2022-09-16T19:46:12.217Z,53.54
2022-09-16T19:48:49.331Z,53.66
2022-09-16T19:51:51.485Z,53.72
2022-09-16T19:54:37.179Z,53.86
2022-09-16T19:57:16.686Z,53.86
2022-09-16T20:03:16.509Z,54.19
2022-09-16T20:06:13.549Z,54.22
2022-09-16T20:08:50.321Z,54.41
2022-09-16T20:11:29.758Z,54.50
2022-09-16T20:14:34.465Z,54.54
2022-09-16T20:17:33.196Z,54.61
2022-09-16T20:20:08.731Z,54.63
2022-09-16T20:22:43.859Z,54.79
2022-09-16T20:25:49.451Z,54.71
2022-09-16T20:28:23.593Z,54.78
2022-09-16T20:31:24.712Z,54.99
2022-09-16T20:34:12.052Z,54.89
2022-09-16T20:37:11.551Z,54.93
2022-09-16T20:39:48.327Z,55.08
2022-09-16T20:42:47.050Z,55.12
2022-09-16T20:45:49.452Z,55.19
2022-09-16T20:48:28.831Z,55.27
2022-09-16T20:51:07.462Z,55.40
2022-09-16T20:53:45.236Z,55.38
2022-09-16T20:59:25.809Z,55.38
2022-09-16T21:02:02.934Z,55.37
2022-09-16T21:04:37.213Z,55.40
2022-09-16T21:07:09.998Z,55.44
2022-09-16T21:09:43.670Z,55.44
2022-09-16T21:13:07.558Z,55.65
2022-09-16T21:15:45.208Z,55.88
2022-09-16T21:19:10.575Z,55.95
2022-09-16T21:25:16.083Z,56.20
2022-09-16T21:28:37.638Z,56.30
2022-09-16T21:31:18.450Z,56.44
2022-09-16T21:33:58.941Z,56.49
2022-09-16T21:36:32.271Z,56.50
2022-09-16T21:39:28.817Z,56.64
2022-09-16T21:42:00.571Z,56.64
2022-09-16T21:44:35.035Z,56.70
2022-09-16T21:47:12.191Z,56.86
2022-09-16T21:49:44.271Z,57.01
2022-09-16T21:52:17.521Z,56.95
2022-09-16T21:54:49.648Z,56.91
2022-09-16T21:57:21.535Z,57.03
2022-09-16T21:59:55.503Z,57.13
2022-09-16T22:02:29.286Z,57.15
2022-09-16T22:05:02.556Z,57.31
2022-09-16T22:07:34.469Z,57.28
2022-09-16T22:10:07.684Z,57.20
2022-09-16T22:12:40.352Z,57.31
2022-09-16T22:15:13.482Z,57.43
2022-09-16T22:17:51.909Z,57.42
2022-09-16T22:20:25.410Z,57.42
2022-09-16T22:22:57.530Z,57.50
2022-09-16T22:25:29.479Z,57.56
2022-09-16T22:28:02.884Z,57.44
2022-09-16T22:30:36.728Z,57.44
2022-09-16T22:33:09.529Z,57.33
2022-09-16T22:35:42.296Z,57.54
2022-09-16T22:38:14.207Z,57.63
2022-09-16T22:40:48.723Z,57.48
2022-09-16T22:43:20.930Z,57.73
2022-09-16T22:45:52.900Z,57.79
2022-09-16T22:48:24.794Z,57.76
2022-09-16T22:51:02.650Z,57.59
2022-09-16T22:53:36.489Z,57.67
2022-09-16T22:56:12.187Z,57.76
2022-09-16T22:58:44.758Z,57.84
2022-09-16T23:01:20.034Z,57.70
2022-09-16T23:03:57.230Z,57.78
2022-09-16T23:06:32.814Z,57.79
2022-09-16T23:09:05.036Z,57.64
2022-09-16T23:11:38.581Z,57.62
2022-09-16T23:14:11.489Z,57.71
2022-09-16T23:16:43.584Z,57.85
2022-09-16T23:19:17.192Z,57.86
2022-09-16T23:21:51.205Z,57.98
2022-09-16T23:24:24.566Z,57.95
2022-09-16T23:26:57.062Z,58.00
2022-09-16T23:29:28.992Z,57.95
2022-09-16T23:32:03.963Z,57.64
2022-09-16T23:34:38.002Z,57.66
2022-09-16T23:37:10.364Z,57.63
2022-09-16T23:39:43.903Z,57.77
2022-09-16T23:42:17.013Z,57.80
2022-09-16T23:44:49.418Z,57.78
2022-09-16T23:47:23.386Z,57.67
2022-09-16T23:49:55.374Z,57.67
2022-09-16T23:52:27.304Z,57.59
2022-09-16T23:55:00.383Z,57.57
2022-09-16T23:57:38.076Z,57.64
